Time;durP1;ratioP1;P1;durP2;ratioP2;P2;SDS_P1;SDS_P2;PMS_P1;PMS_P2;Temp;Humidity;BMP_temperature;BMP_pressure;BME280_temperature;BME280_humidity;BME280_pressure;Samples;Min_cycle;Max_cycle;Signal;HPM_P1;HPM_P2
2020/12/16 00:02:05;;;;;;;19.10;11.20;;;7.40;99.90;;;;;;5064498;28;20207;-76
2020/12/16 00:04:31;;;;;;;17.83;11.13;;;7.50;99.90;;;;;;5067290;28;20670;-77
2020/12/16 00:06:57;;;;;;;17.43;10.97;;;7.50;99.90;;;;;;5045258;28;20274;-76
2020/12/16 00:09:24;;;;;;;12.90;9.60;;;7.40;99.90;;;;;;5063553;28;20235;-76
2020/12/16 00:11:51;;;;;;;14.60;10.33;;;7.30;99.90;;;;;;5068174;28;20262;-76
2020/12/16 00:14:17;;;;;;;14.20;9.80;;;7.40;99.90;;;;;;5066919;28;20202;-77
2020/12/16 00:16:43;;;;;;;13.20;10.73;;;7.30;99.90;;;;;;5044307;28;20252;-76
2020/12/16 00:19:10;;;;;;;16.10;10.37;;;7.30;99.90;;;;;;5034825;28;20199;-76
2020/12/16 00:21:36;;;;;;;17.37;11.17;;;7.30;99.90;;;;;;5066582;28;20210;-76
2020/12/16 00:24:02;;;;;;;15.10;10.27;;;7.20;99.90;;;;;;5079077;28;20287;-77
2020/12/16 00:26:29;;;;;;;16.20;9.27;;;7.20;99.90;;;;;;5048627;28;20199;-76
2020/12/16 00:28:55;;;;;;;17.10;10.43;;;7.20;99.90;;;;;;5063132;28;20359;-76
2020/12/16 00:31:21;;;;;;;14.47;9.77;;;7.20;99.90;;;;;;5051418;28;20253;-76
2020/12/16 00:33:48;;;;;;;15.83;9.60;;;7.10;99.90;;;;;;5068928;28;20247;-76
2020/12/16 00:36:14;;;;;;;12.17;9.27;;;7.10;99.90;;;;;;5066097;28;20260;-76
2020/12/16 00:38:41;;;;;;;13.13;8.33;;;7.10;99.90;;;;;;5071818;28;20784;-76
2020/12/16 00:41:07;;;;;;;9.87;8.07;;;7.00;99.90;;;;;;5071662;28;20201;-76
2020/12/16 00:43:34;;;;;;;10.27;8.23;;;7.00;99.90;;;;;;5054804;28;20207;-76
2020/12/16 00:46:00;;;;;;;15.13;9.63;;;7.00;99.90;;;;;;5071419;28;20206;-76
2020/12/16 00:48:27;;;;;;;10.40;9.00;;;7.00;99.90;;;;;;5053212;28;20209;-76
2020/12/16 00:50:53;;;;;;;11.83;8.50;;;6.90;99.90;;;;;;5070624;28;20203;-76
2020/12/16 00:53:19;;;;;;;14.57;9.20;;;6.90;99.90;;;;;;5085770;28;20248;-76
2020/12/16 00:55:46;;;;;;;17.13;8.60;;;6.50;99.90;;;;;;5071151;28;20595;-76
2020/12/16 00:58:12;;;;;;;12.80;7.70;;;6.20;99.90;;;;;;5085281;28;20200;-76
2020/12/16 01:00:39;;;;;;;15.20;8.00;;;6.00;99.90;;;;;;5081985;28;20202;-76
2020/12/16 01:03:06;;;;;;;24.90;8.70;;;5.80;99.90;;;;;;5044864;28;20196;-76
2020/12/16 01:05:32;;;;;;;12.27;8.23;;;5.80;99.90;;;;;;5053293;28;20193;-76
2020/12/16 01:07:58;;;;;;;11.40;7.23;;;5.60;99.90;;;;;;5064813;28;20270;-76
2020/12/16 01:10:25;;;;;;;12.07;7.50;;;5.50;99.90;;;;;;5062185;28;20551;-76
2020/12/16 01:12:51;;;;;;;17.67;8.23;;;5.40;99.90;;;;;;5066370;28;20248;-77
2020/12/16 01:15:19;;;;;;;10.73;7.17;;;5.40;99.90;;;;;;5066101;28;20294;-76
2020/12/16 01:17:48;;;;;;;9.60;7.43;;;5.50;99.90;;;;;;5069226;28;20196;-76
2020/12/16 01:20:15;;;;;;;10.67;7.77;;;5.40;99.90;;;;;;5064796;28;20203;-76
2020/12/16 01:22:46;;;;;;;10.73;7.33;;;5.40;99.90;;;;;;5064766;28;20205;-76
2020/12/16 01:25:17;;;;;;;11.93;7.27;;;5.30;99.90;;;;;;5064375;28;22308;-76
2020/12/16 01:27:43;;;;;;;12.33;8.20;;;5.30;99.90;;;;;;5050258;28;20248;-75
2020/12/16 01:30:10;;;;;;;11.60;8.20;;;5.40;99.90;;;;;;5071943;28;20206;-76
2020/12/16 01:32:37;;;;;;;11.67;8.03;;;5.70;99.90;;;;;;5068892;28;20212;-76
2020/12/16 01:35:08;;;;;;;14.67;8.27;;;5.60;99.90;;;;;;5082948;28;20225;-76
2020/12/16 01:37:38;;;;;;;16.87;8.10;;;5.70;99.90;;;;;;5071272;28;20202;-76
2020/12/16 01:40:06;;;;;;;12.47;8.50;;;5.80;99.90;;;;;;5065436;28;20261;-76
2020/12/16 01:42:33;;;;;;;9.47;7.50;;;5.80;99.90;;;;;;5070833;28;20235;-76
2020/12/16 01:45:06;;;;;;;12.70;7.57;;;5.80;99.90;;;;;;5068573;28;20279;-76
2020/12/16 01:47:33;;;;;;;20.40;8.03;;;5.80;99.90;;;;;;5067480;28;20204;-76
2020/12/16 01:50:00;;;;;;;14.97;7.83;;;5.80;99.90;;;;;;5069288;28;22481;-76
2020/12/16 01:52:28;;;;;;;11.33;8.50;;;5.70;99.90;;;;;;5051650;28;20278;-75
2020/12/16 01:54:55;;;;;;;13.77;8.07;;;5.80;99.90;;;;;;5075733;28;20282;-76
2020/12/16 01:57:24;;;;;;;9.93;7.70;;;5.80;99.90;;;;;;5065601;28;20267;-76
2020/12/16 01:59:51;;;;;;;10.87;8.07;;;5.80;99.90;;;;;;5068898;28;20192;-77
2020/12/16 02:02:24;;;;;;;10.50;7.37;;;5.80;99.90;;;;;;5082852;28;20235;-76
2020/12/16 02:04:51;;;;;;;12.13;7.33;;;5.80;99.90;;;;;;5065833;28;20200;-76
2020/12/16 02:07:20;;;;;;;9.70;7.23;;;5.80;99.90;;;;;;5064293;28;20203;-76
2020/12/16 02:09:47;;;;;;;10.47;7.83;;;5.80;99.90;;;;;;5070759;28;20273;-77
2020/12/16 02:12:22;;;;;;;13.43;7.40;;;5.80;99.90;;;;;;5067706;28;20346;-76
2020/12/16 02:14:49;;;;;;;10.83;7.33;;;5.80;99.90;;;;;;5070783;28;20272;-76
2020/12/16 02:17:16;;;;;;;10.23;7.93;;;5.80;99.90;;;;;;5068347;28;20292;-77
2020/12/16 02:19:56;;;;;;;11.83;8.10;;;5.80;99.90;;;;;;5060248;28;20666;-76
2020/12/16 02:22:23;;;;;;;12.97;8.13;;;5.70;99.90;;;;;;5060532;28;20233;-77
2020/12/16 02:24:53;;;;;;;9.40;7.53;;;5.80;99.90;;;;;;5066980;28;20614;-76
2020/12/16 02:27:19;;;;;;;11.23;7.67;;;5.70;99.90;;;;;;5069564;28;20300;-77
2020/12/16 02:29:45;;;;;;;13.10;6.90;;;5.70;99.90;;;;;;5051618;28;20291;-77
2020/12/16 02:32:13;;;;;;;12.13;8.10;;;5.70;99.90;;;;;;5082921;28;20268;-77
2020/12/16 02:34:41;;;;;;;12.90;8.10;;;5.70;99.90;;;;;;5065397;28;20260;-76
2020/12/16 02:37:07;;;;;;;10.07;8.27;;;5.70;99.90;;;;;;5069382;28;20623;-77
2020/12/16 02:39:34;;;;;;;11.50;8.30;;;5.80;99.90;;;;;;5045692;28;20299;-77
2020/12/16 02:42:06;;;;;;;10.27;7.70;;;5.70;99.90;;;;;;5052278;28;20235;-77
2020/12/16 02:44:33;;;;;;;10.47;8.10;;;5.70;99.90;;;;;;5051833;28;20221;-77
2020/12/16 02:47:01;;;;;;;9.90;8.10;;;5.50;99.90;;;;;;5055696;28;20266;-78
2020/12/16 02:49:27;;;;;;;11.13;8.70;;;5.30;99.90;;;;;;5069389;28;20197;-77
2020/12/16 02:51:54;;;;;;;9.67;7.67;;;5.20;99.90;;;;;;5068830;28;20200;-77
2020/12/16 02:54:22;;;;;;;12.80;7.93;;;5.20;99.90;;;;;;5053021;28;20233;-77
2020/12/16 02:56:49;;;;;;;14.13;7.87;;;5.20;99.90;;;;;;5069249;28;20238;-76
2020/12/16 02:59:16;;;;;;;11.53;8.30;;;5.10;99.90;;;;;;5058947;28;20192;-76
2020/12/16 03:01:43;;;;;;;14.20;8.07;;;5.20;99.90;;;;;;5065250;28;20279;-76
2020/12/16 03:04:09;;;;;;;8.47;6.77;;;5.10;99.90;;;;;;5065627;28;20608;-76
2020/12/16 03:06:35;;;;;;;10.00;7.47;;;5.30;99.90;;;;;;5062525;28;20196;-76
2020/12/16 03:09:02;;;;;;;10.00;8.43;;;5.40;99.90;;;;;;5050219;28;20668;-75
2020/12/16 03:11:29;;;;;;;11.90;7.33;;;5.30;99.90;;;;;;5064114;28;20355;-76
2020/12/16 03:13:55;;;;;;;10.43;7.67;;;5.40;99.90;;;;;;5064718;28;20277;-75
2020/12/16 03:16:21;;;;;;;9.63;6.93;;;5.60;99.90;;;;;;5066496;28;20706;-75
2020/12/16 03:18:48;;;;;;;13.30;8.10;;;5.60;99.90;;;;;;5065732;28;20504;-76
2020/12/16 03:21:23;;;;;;;11.73;8.63;;;5.60;99.90;;;;;;5063902;28;22187;-77
2020/12/16 03:23:51;;;;;;;9.37;7.30;;;5.60;99.90;;;;;;5065703;28;20203;-75
2020/12/16 03:26:18;;;;;;;9.33;7.87;;;5.40;99.90;;;;;;5065739;28;20200;-75
2020/12/16 03:28:45;;;;;;;12.50;8.50;;;5.60;99.90;;;;;;5067794;28;20618;-75
2020/12/16 03:31:12;;;;;;;12.87;8.60;;;5.70;99.90;;;;;;5081014;28;20213;-75
2020/12/16 03:33:43;;;;;;;13.07;9.07;;;5.80;99.90;;;;;;5061590;28;20244;-76
2020/12/16 03:36:15;;;;;;;13.50;8.97;;;5.90;99.90;;;;;;5067830;28;20569;-76
2020/12/16 03:38:42;;;;;;;13.80;8.23;;;5.90;99.90;;;;;;5060037;28;20224;-75
2020/12/16 03:41:09;;;;;;;13.20;9.00;;;5.90;99.90;;;;;;5067445;28;20204;-75
2020/12/16 03:43:35;;;;;;;16.73;9.93;;;6.00;99.90;;;;;;5062619;28;20251;-76
2020/12/16 03:46:07;;;;;;;12.13;9.20;;;6.00;99.90;;;;;;5064472;28;20220;-75
2020/12/16 03:48:34;;;;;;;11.50;8.50;;;6.10;99.90;;;;;;5063275;28;20678;-76
2020/12/16 03:51:03;;;;;;;16.10;8.70;;;6.10;99.90;;;;;;5049487;28;20587;-75
2020/12/16 03:53:32;;;;;;;13.27;8.67;;;6.10;99.90;;;;;;5049454;28;20228;-75
2020/12/16 03:56:04;;;;;;;13.77;9.60;;;6.20;99.90;;;;;;5065704;28;20216;-75
2020/12/16 03:58:31;;;;;;;16.33;8.90;;;6.20;99.90;;;;;;5066846;28;20288;-75
2020/12/16 04:00:57;;;;;;;14.07;8.37;;;6.20;99.90;;;;;;5073942;28;20200;-75
2020/12/16 04:03:24;;;;;;;12.57;8.10;;;6.20;99.90;;;;;;5054818;28;20956;-76
2020/12/16 04:05:50;;;;;;;20.67;9.17;;;6.00;99.90;;;;;;5084080;28;20950;-75
2020/12/16 04:08:16;;;;;;;16.90;8.90;;;6.00;99.90;;;;;;5059923;28;20328;-76
2020/12/16 04:10:42;;;;;;;16.73;7.80;;;6.00;99.90;;;;;;5067488;28;20734;-76
2020/12/16 04:13:09;;;;;;;20.47;7.93;;;6.00;99.90;;;;;;5049323;28;20347;-76
2020/12/16 04:15:35;;;;;;;13.80;8.47;;;5.90;99.90;;;;;;5048137;28;20267;-76
2020/12/16 04:18:01;;;;;;;12.40;7.53;;;6.00;99.90;;;;;;5062951;28;20213;-75
2020/12/16 04:20:28;;;;;;;14.37;7.37;;;6.10;99.90;;;;;;5065835;28;20253;-75
2020/12/16 04:22:54;;;;;;;19.77;7.47;;;5.90;99.90;;;;;;5065327;28;20644;-76
2020/12/16 04:25:21;;;;;;;15.03;7.97;;;5.90;99.90;;;;;;5066568;28;20261;-76
2020/12/16 04:27:48;;;;;;;11.70;6.63;;;6.00;99.90;;;;;;5062023;28;20269;-75
2020/12/16 04:30:14;;;;;;;16.53;7.77;;;6.10;99.90;;;;;;5049554;28;20656;-76
2020/12/16 04:32:40;;;;;;;11.00;7.30;;;5.90;99.90;;;;;;5059266;28;20241;-76
2020/12/16 04:35:07;;;;;;;10.33;7.80;;;5.90;99.90;;;;;;5054047;28;20258;-76
2020/12/16 04:37:33;;;;;;;12.90;7.63;;;5.90;99.90;;;;;;5051088;28;20245;-76
2020/12/16 04:40:00;;;;;;;9.70;7.30;;;6.00;99.90;;;;;;5065412;28;20627;-76
2020/12/16 04:42:26;;;;;;;13.73;8.33;;;5.90;99.90;;;;;;5062360;28;20265;-76
2020/12/16 04:44:53;;;;;;;14.67;8.37;;;6.10;99.90;;;;;;5064293;28;20233;-76
2020/12/16 04:47:20;;;;;;;11.80;8.17;;;6.00;99.90;;;;;;5066201;28;20198;-76
2020/12/16 04:49:47;;;;;;;13.40;8.40;;;6.00;99.90;;;;;;5049397;28;20201;-76
2020/12/16 04:52:20;;;;;;;13.07;8.53;;;6.10;99.90;;;;;;5054851;28;20230;-76
2020/12/16 04:54:46;;;;;;;12.73;8.30;;;6.10;99.90;;;;;;5066806;28;20199;-76
2020/12/16 04:57:13;;;;;;;11.83;8.20;;;6.20;99.90;;;;;;5069106;28;20235;-75
2020/12/16 04:59:39;;;;;;;12.67;7.87;;;6.20;99.90;;;;;;5061447;28;20345;-76
2020/12/16 05:02:05;;;;;;;11.73;8.60;;;6.00;99.90;;;;;;5065402;28;20199;-76
2020/12/16 05:04:32;;;;;;;13.20;8.80;;;6.00;99.90;;;;;;5066798;28;20197;-76
2020/12/16 05:06:58;;;;;;;13.43;8.73;;;6.00;99.90;;;;;;5066610;28;20272;-76
2020/12/16 05:09:24;;;;;;;11.33;8.30;;;6.10;99.90;;;;;;5050857;28;20247;-77
2020/12/16 05:11:52;;;;;;;13.27;8.87;;;6.10;99.90;;;;;;5067217;28;20295;-77
2020/12/16 05:14:25;;;;;;;14.97;9.43;;;5.90;99.90;;;;;;5063354;28;20302;-76
2020/12/16 05:16:54;;;;;;;15.87;9.13;;;5.90;99.90;;;;;;5065830;28;20203;-76
2020/12/16 05:19:35;;;;;;;14.13;9.10;;;5.90;99.90;;;;;;5064241;28;20282;-76
2020/12/16 05:22:30;;;;;;;15.43;9.60;;;5.90;99.90;;;;;;5067284;28;20208;-76
2020/12/16 05:24:58;;;;;;;15.20;9.03;;;5.90;99.90;;;;;;5069049;28;20197;-76
2020/12/16 05:27:29;;;;;;;17.03;9.17;;;6.00;99.90;;;;;;5063914;28;20224;-76
2020/12/16 05:29:57;;;;;;;17.00;9.17;;;6.10;99.90;;;;;;5085056;28;20193;-75
2020/12/16 05:32:34;;;;;;;14.57;8.83;;;6.00;99.90;;;;;;5068398;28;20227;-77
2020/12/16 05:35:19;;;;;;;14.53;9.57;;;6.00;99.90;;;;;;5066808;28;20309;-76
2020/12/16 05:37:45;;;;;;;12.90;8.80;;;6.10;99.90;;;;;;5068050;28;20197;-77
2020/12/16 05:40:16;;;;;;;19.10;9.87;;;6.10;99.90;;;;;;5066884;28;20280;-76
2020/12/16 05:42:49;;;;;;;12.70;8.50;;;6.10;99.90;;;;;;5066530;28;20302;-76
2020/12/16 05:45:20;;;;;;;15.07;9.67;;;6.10;99.90;;;;;;5056439;28;20570;-77
2020/12/16 05:47:58;;;;;;;13.40;9.30;;;6.10;99.90;;;;;;5070438;28;20253;-76
2020/12/16 05:50:28;;;;;;;17.93;9.07;;;6.10;99.90;;;;;;5071895;28;20256;-77
2020/12/16 05:53:09;;;;;;;15.30;9.80;;;6.00;99.90;;;;;;5063461;28;20254;-76
2020/12/16 05:55:56;;;;;;;11.30;8.63;;;6.00;99.90;;;;;;5081007;28;20213;-76
2020/12/16 05:58:33;;;;;;;16.03;9.33;;;6.00;99.90;;;;;;5088023;28;20225;-77
2020/12/16 06:01:01;;;;;;;14.50;9.17;;;6.00;99.90;;;;;;5082727;28;20280;-77
2020/12/16 06:03:38;;;;;;;13.93;8.67;;;5.90;99.90;;;;;;5066947;28;20206;-77
2020/12/16 06:06:09;;;;;;;15.87;8.70;;;6.00;99.90;;;;;;5068089;28;20201;-76
2020/12/16 06:08:43;;;;;;;15.00;8.40;;;6.00;99.90;;;;;;5064926;28;20258;-76
2020/12/16 06:11:11;;;;;;;14.23;8.53;;;5.90;99.90;;;;;;5069889;28;20332;-75
2020/12/16 06:13:45;;;;;;;17.50;8.73;;;5.90;99.90;;;;;;5082898;28;20232;-76
2020/12/16 06:16:11;;;;;;;10.53;8.30;;;5.80;99.90;;;;;;5072208;28;20233;-76
2020/12/16 06:18:43;;;;;;;13.70;9.23;;;5.80;99.90;;;;;;5066198;28;20197;-75
2020/12/16 06:21:11;;;;;;;12.87;8.87;;;5.80;99.90;;;;;;5068790;28;20199;-75
2020/12/16 06:23:40;;;;;;;11.23;7.80;;;5.80;99.90;;;;;;5065624;28;20223;-76
2020/12/16 06:26:14;;;;;;;14.27;8.67;;;5.80;99.90;;;;;;5071020;28;20332;-75
2020/12/16 06:28:42;;;;;;;14.30;8.57;;;5.60;99.90;;;;;;5067205;28;20227;-76
2020/12/16 06:31:17;;;;;;;14.57;8.77;;;5.60;99.90;;;;;;5046390;28;20241;-76
2020/12/16 06:33:52;;;;;;;13.77;8.83;;;5.60;99.90;;;;;;5080534;28;20608;-75
2020/12/16 06:36:19;;;;;;;14.87;8.20;;;5.60;99.90;;;;;;5077948;28;20684;-75
2020/12/16 06:38:48;;;;;;;17.13;9.33;;;5.60;99.90;;;;;;5067009;28;20196;-76
2020/12/16 06:41:28;;;;;;;15.90;9.50;;;5.50;99.90;;;;;;5066892;28;20211;-76
2020/12/16 06:43:57;;;;;;;14.73;8.73;;;5.60;99.90;;;;;;5066890;28;20242;-76
2020/12/16 06:46:38;;;;;;;14.07;9.23;;;5.60;99.90;;;;;;5067501;28;20289;-76
2020/12/16 06:49:27;;;;;;;12.73;8.30;;;5.60;99.90;;;;;;5065986;28;20597;-76
2020/12/16 06:51:57;;;;;;;14.27;8.53;;;5.50;99.90;;;;;;5049748;28;20231;-76
2020/12/16 06:54:34;;;;;;;12.07;7.90;;;5.60;99.90;;;;;;5063922;28;20223;-76
2020/12/16 06:57:21;;;;;;;11.27;8.33;;;5.50;99.90;;;;;;5078945;28;20208;-76
2020/12/16 06:59:50;;;;;;;14.07;8.30;;;5.40;99.90;;;;;;5063325;28;20697;-75
2020/12/16 07:02:27;;;;;;;15.50;8.43;;;5.50;99.90;;;;;;5061485;28;20208;-76
2020/12/16 07:04:55;;;;;;;11.87;7.93;;;5.50;99.90;;;;;;5062785;28;20518;-75
2020/12/16 07:07:55;;;;;;;12.60;7.87;;;5.50;99.90;;;;;;5064351;28;20614;-78
2020/12/16 07:10:34;;;;;;;10.47;7.53;;;5.40;99.90;;;;;;5063908;28;20220;-76
2020/12/16 07:13:22;;;;;;;9.43;6.83;;;5.40;99.90;;;;;;5065395;28;20611;-76
2020/12/16 07:15:56;;;;;;;13.30;7.87;;;5.40;99.90;;;;;;5066900;28;20579;-74
2020/12/16 07:18:34;;;;;;;9.37;6.90;;;5.40;99.90;;;;;;5064967;28;20195;-77
2020/12/16 07:21:17;;;;;;;9.00;7.03;;;5.40;99.90;;;;;;5078366;28;20231;-80
2020/12/16 07:23:47;;;;;;;10.93;7.00;;;5.50;99.90;;;;;;5062359;28;20260;-82
2020/12/16 07:26:31;;;;;;;10.73;7.57;;;5.50;99.90;;;;;;5066739;28;20203;-80
2020/12/16 07:28:59;;;;;;;10.57;7.43;;;5.40;99.90;;;;;;5061656;28;20195;-80
2020/12/16 07:31:26;;;;;;;12.07;7.40;;;5.50;99.90;;;;;;5059793;28;20338;-80
2020/12/16 07:33:53;;;;;;;12.30;7.07;;;5.40;99.90;;;;;;5063390;28;20271;-80
2020/12/16 07:36:22;;;;;;;7.93;6.13;;;5.50;99.90;;;;;;5059776;28;20321;-80
2020/12/16 07:38:51;;;;;;;8.33;6.03;;;5.50;99.90;;;;;;5047187;28;20196;-80
2020/12/16 07:41:30;;;;;;;10.97;7.00;;;5.40;99.90;;;;;;5081373;28;20271;-79
2020/12/16 07:43:59;;;;;;;10.40;6.43;;;5.50;99.90;;;;;;5043636;28;20768;-79
2020/12/16 07:46:26;;;;;;;8.23;5.03;;;5.50;99.90;;;;;;5046443;28;20209;-80
2020/12/16 07:48:52;;;;;;;8.83;6.27;;;5.50;99.90;;;;;;5057538;28;20609;-79
2020/12/16 07:51:20;;;;;;;8.37;6.47;;;5.40;99.90;;;;;;5051568;28;20708;-78
2020/12/16 07:53:49;;;;;;;9.53;7.10;;;5.60;99.90;;;;;;5072471;28;20227;-81
2020/12/16 07:56:17;;;;;;;8.43;6.13;;;5.50;99.90;;;;;;5067927;28;20787;-82
2020/12/16 07:58:44;;;;;;;9.33;7.07;;;5.40;99.90;;;;;;5069415;28;20230;-81
2020/12/16 08:01:12;;;;;;;9.30;6.67;;;5.50;99.90;;;;;;5067904;28;20310;-82
2020/12/16 08:03:40;;;;;;;9.37;6.90;;;5.60;99.90;;;;;;5051204;28;20207;-82
2020/12/16 08:06:07;;;;;;;9.90;6.80;;;5.60;99.90;;;;;;5066564;28;20214;-83
2020/12/16 08:08:42;;;;;;;12.80;6.80;;;5.60;99.90;;;;;;5060334;28;21239;-80
2020/12/16 08:11:25;;;;;;;10.63;6.30;;;5.60;99.90;;;;;;5061351;28;20268;-82
2020/12/16 08:14:01;;;;;;;7.90;6.20;;;5.80;99.90;;;;;;5047442;28;21060;-82
2020/12/16 08:16:28;;;;;;;8.90;7.85;;;5.80;99.90;;;;;;5075558;28;20897;-78
2020/12/16 08:18:54;;;;;;;9.67;7.10;;;5.80;99.90;;;;;;5044152;28;20292;-78
2020/12/16 08:21:22;;;;;;;9.20;6.63;;;5.90;99.90;;;;;;5062378;28;20822;-77
2020/12/16 08:23:53;;;;;;;9.20;7.60;;;5.90;99.90;;;;;;5054872;28;20199;-78
2020/12/16 08:26:22;;;;;;;8.20;6.17;;;5.90;99.90;;;;;;5069032;28;20244;-78
2020/12/16 08:28:48;;;;;;;7.27;6.00;;;6.10;99.90;;;;;;5045890;28;20241;-81
2020/12/16 08:31:31;;;;;;;8.10;6.33;;;6.10;99.90;;;;;;5059873;28;20293;-80
2020/12/16 08:34:00;;;;;;;9.30;6.13;;;6.00;99.90;;;;;;5083853;28;20227;-81
2020/12/16 08:36:33;;;;;;;8.73;6.33;;;6.00;99.90;;;;;;5077581;28;20207;-79
2020/12/16 08:39:05;;;;;;;9.00;6.47;;;6.10;99.90;;;;;;5067364;28;20211;-79
2020/12/16 08:41:35;;;;;;;8.93;6.67;;;6.20;99.90;;;;;;5046835;28;20209;-77
2020/12/16 08:44:05;;;;;;;11.97;8.83;;;6.10;99.90;;;;;;5065979;28;20228;-77
2020/12/16 08:46:38;;;;;;;9.57;6.70;;;6.10;99.90;;;;;;5062188;28;20646;-78
2020/12/16 08:49:05;;;;;;;9.17;6.43;;;6.20;99.90;;;;;;5056920;28;20264;-78
2020/12/16 08:51:34;;;;;;;9.10;6.87;;;6.20;99.90;;;;;;5057876;28;20206;-77
2020/12/16 08:54:11;;;;;;;9.83;7.10;;;6.60;99.90;;;;;;5053442;28;20273;-76
2020/12/16 08:56:45;;;;;;;8.83;6.00;;;6.50;99.90;;;;;;5056386;28;20203;-78
2020/12/16 08:59:23;;;;;;;13.93;7.17;;;6.50;99.90;;;;;;5062334;28;20298;-78
2020/12/16 09:02:02;;;;;;;8.77;6.67;;;6.50;99.90;;;;;;5068385;28;20280;-81
2020/12/16 09:04:31;;;;;;;7.20;6.23;;;6.70;99.90;;;;;;5083463;28;20213;-80
2020/12/16 09:07:00;;;;;;;9.00;7.20;;;6.80;99.90;;;;;;5071399;28;20195;-80
2020/12/16 09:09:26;;;;;;;9.93;7.33;;;7.00;99.90;;;;;;5052363;28;20246;-78
2020/12/16 09:11:53;;;;;;;8.50;6.27;;;7.30;99.90;;;;;;5065881;28;20207;-79
2020/12/16 09:14:20;;;;;;;7.97;5.63;;;7.40;99.90;;;;;;5073093;28;20215;-78
2020/12/16 09:16:47;;;;;;;8.27;6.77;;;7.30;99.90;;;;;;5064683;28;20203;-78
2020/12/16 09:19:21;;;;;;;8.30;6.27;;;7.60;99.90;;;;;;5063435;28;20222;-78
2020/12/16 09:21:49;;;;;;;8.20;6.63;;;7.90;99.90;;;;;;5067168;28;20198;-76
2020/12/16 09:24:23;;;;;;;8.77;6.33;;;8.50;99.90;;;;;;5067757;28;20246;-76
2020/12/16 09:26:51;;;;;;;9.37;6.23;;;8.70;99.90;;;;;;5064039;28;20223;-76
2020/12/16 09:29:22;;;;;;;7.83;6.13;;;8.60;99.90;;;;;;5068222;28;20566;-76
2020/12/16 09:31:51;;;;;;;7.43;5.73;;;8.60;99.90;;;;;;5080378;28;20227;-77
2020/12/16 09:34:19;;;;;;;9.63;5.93;;;8.50;99.90;;;;;;5061421;28;20301;-76
2020/12/16 09:36:46;;;;;;;8.80;6.20;;;8.60;99.90;;;;;;5064450;28;20195;-77
2020/12/16 09:39:15;;;;;;;7.57;5.83;;;8.60;99.90;;;;;;5068187;28;20202;-77
2020/12/16 09:41:42;;;;;;;7.13;5.23;;;8.40;99.90;;;;;;5057927;28;20283;-76
2020/12/16 09:44:22;;;;;;;8.17;6.57;;;8.50;99.90;;;;;;5067516;28;20318;-77
2020/12/16 09:46:49;;;;;;;7.33;5.60;;;8.60;99.90;;;;;;5065818;28;20255;-76
2020/12/16 09:49:18;;;;;;;8.20;5.90;;;8.50;99.90;;;;;;5049253;28;20199;-77
2020/12/16 09:51:44;;;;;;;11.67;5.90;;;8.60;99.90;;;;;;5054218;28;20211;-76
2020/12/16 09:54:26;;;;;;;9.13;5.60;;;8.80;99.90;;;;;;5063107;28;20317;-76
2020/12/16 09:56:52;;;;;;;8.63;5.83;;;9.20;99.90;;;;;;5062936;28;20187;-76
2020/12/16 09:59:19;;;;;;;6.60;5.57;;;9.10;99.90;;;;;;5058355;28;20214;-77
2020/12/16 10:01:49;;;;;;;9.33;5.67;;;9.40;99.90;;;;;;5080259;28;20241;-76
2020/12/16 10:04:16;;;;;;;7.57;6.23;;;9.60;99.90;;;;;;5077834;28;20232;-76
2020/12/16 10:06:42;;;;;;;7.37;6.03;;;10.30;99.90;;;;;;5060829;28;20233;-76
2020/12/16 10:09:08;;;;;;;8.73;6.37;;;10.50;99.90;;;;;;5045098;28;20212;-77
2020/12/16 10:11:37;;;;;;;7.43;5.97;;;10.60;99.90;;;;;;5064884;28;20225;-76
2020/12/16 10:14:03;;;;;;;7.50;5.67;;;10.50;99.90;;;;;;5052501;28;20265;-76
2020/12/16 10:16:32;;;;;;;8.60;5.33;;;10.50;99.90;;;;;;5052133;28;20217;-76
2020/12/16 10:19:00;;;;;;;7.93;5.70;;;10.40;99.90;;;;;;5062155;28;20235;-77
2020/12/16 10:21:26;;;;;;;7.97;5.93;;;10.20;99.90;;;;;;5064816;28;20365;-77
2020/12/16 10:23:52;;;;;;;7.70;5.23;;;10.40;99.90;;;;;;5048249;28;20234;-76
2020/12/16 10:26:19;;;;;;;7.00;6.30;;;10.40;99.90;;;;;;5060521;28;20204;-75
2020/12/16 10:28:45;;;;;;;8.23;6.57;;;10.20;99.90;;;;;;5023912;28;20623;-76
2020/12/16 10:31:11;;;;;;;8.83;6.10;;;10.10;99.90;;;;;;5055273;28;20296;-76
2020/12/16 10:33:37;;;;;;;6.80;5.30;;;10.10;99.90;;;;;;5059292;28;20260;-75
2020/12/16 10:36:04;;;;;;;7.30;5.53;;;10.00;99.90;;;;;;5042117;28;20227;-75
2020/12/16 10:38:30;;;;;;;7.73;6.07;;;9.80;99.90;;;;;;5046842;28;20556;-76
2020/12/16 10:40:57;;;;;;;5.57;4.77;;;10.10;99.90;;;;;;5059926;28;20207;-76
2020/12/16 10:43:23;;;;;;;8.17;5.43;;;9.90;99.90;;;;;;5057169;28;20202;-76
2020/12/16 10:45:49;;;;;;;6.87;5.80;;;10.10;99.90;;;;;;5060717;28;20336;-76
2020/12/16 10:48:16;;;;;;;7.43;5.50;;;9.90;99.90;;;;;;5048820;28;20257;-76
2020/12/16 10:50:42;;;;;;;8.07;5.90;;;9.70;99.90;;;;;;5045469;28;20599;-77
2020/12/16 10:53:09;;;;;;;8.67;5.63;;;9.70;99.90;;;;;;5063356;28;20277;-79
2020/12/16 10:55:36;;;;;;;8.63;5.73;;;9.90;99.90;;;;;;5068781;28;20210;-78
2020/12/16 10:58:02;;;;;;;7.40;5.73;;;9.80;99.90;;;;;;5064238;28;20227;-76
2020/12/16 11:00:29;;;;;;;7.57;5.53;;;9.80;99.90;;;;;;5063372;28;20260;-75
2020/12/16 11:02:56;;;;;;;9.50;6.10;;;10.00;99.90;;;;;;5065704;28;20200;-77
2020/12/16 11:05:22;;;;;;;8.33;5.60;;;9.90;99.90;;;;;;5059691;28;20308;-75
2020/12/16 11:07:49;;;;;;;16.30;6.30;;;9.90;99.90;;;;;;5066415;28;20249;-76
2020/12/16 11:10:15;;;;;;;8.50;6.00;;;9.80;99.90;;;;;;5065624;28;20277;-75
2020/12/16 11:12:41;;;;;;;9.03;5.47;;;10.10;99.90;;;;;;5061361;28;20224;-76
2020/12/16 11:15:08;;;;;;;9.93;6.33;;;10.00;99.90;;;;;;5049913;28;20203;-76
2020/12/16 11:17:34;;;;;;;10.70;5.97;;;10.10;99.90;;;;;;5064363;28;20280;-77
2020/12/16 11:20:01;;;;;;;9.57;7.20;;;10.10;99.90;;;;;;5044924;28;20489;-78
2020/12/16 11:22:28;;;;;;;7.93;5.50;;;10.10;99.90;;;;;;5047590;28;20466;-77
2020/12/16 11:24:56;;;;;;;7.33;5.50;;;10.10;99.90;;;;;;5064939;28;20594;-77
2020/12/16 11:27:22;;;;;;;7.17;5.33;;;10.30;99.90;;;;;;5047225;28;20242;-76
2020/12/16 11:29:49;;;;;;;8.37;5.87;;;10.50;99.90;;;;;;5063097;28;20219;-77
2020/12/16 11:32:16;;;;;;;8.27;5.80;;;10.60;99.90;;;;;;5046247;28;20203;-77
2020/12/16 11:34:42;;;;;;;7.47;5.70;;;10.70;99.90;;;;;;5059541;28;20232;-79
2020/12/16 11:37:09;;;;;;;8.13;5.50;;;10.70;99.90;;;;;;5066064;28;20197;-77
2020/12/16 11:39:35;;;;;;;7.03;5.17;;;10.90;99.90;;;;;;5054545;28;20560;-77
2020/12/16 11:42:03;;;;;;;8.53;5.73;;;11.00;99.90;;;;;;5059600;28;20207;-75
2020/12/16 11:44:30;;;;;;;6.83;5.60;;;11.30;99.90;;;;;;5061076;28;20235;-76
2020/12/16 11:46:59;;;;;;;8.77;6.17;;;11.20;99.90;;;;;;5065002;28;20612;-75
2020/12/16 11:49:26;;;;;;;15.53;5.83;;;11.50;99.90;;;;;;5062227;28;20575;-76
2020/12/16 11:51:54;;;;;;;7.17;5.53;;;11.80;99.90;;;;;;5075580;28;20196;-76
2020/12/16 11:54:22;;;;;;;10.53;5.20;;;11.90;99.90;;;;;;5064190;28;20692;-78
2020/12/16 11:56:48;;;;;;;7.23;5.37;;;11.60;99.90;;;;;;5065233;28;20204;-75
2020/12/16 11:59:25;;;;;;;8.20;5.63;;;11.60;99.90;;;;;;5067135;28;20236;-78
2020/12/16 12:02:02;;;;;;;6.83;5.30;;;11.00;99.90;;;;;;5065400;28;20196;-76
2020/12/16 12:04:30;;;;;;;9.17;6.03;;;11.10;99.90;;;;;;5064419;28;20204;-77
2020/12/16 12:06:56;;;;;;;7.80;5.73;;;11.20;99.90;;;;;;5058539;28;20205;-76
2020/12/16 12:09:24;;;;;;;6.53;5.10;;;11.30;99.90;;;;;;5061136;28;20205;-79
2020/12/16 12:11:51;;;;;;;7.53;5.13;;;11.40;99.90;;;;;;5063497;28;20378;-77
2020/12/16 12:14:18;;;;;;;8.87;6.00;;;11.50;99.90;;;;;;5052491;28;20332;-78
2020/12/16 12:16:47;;;;;;;8.30;5.90;;;11.80;99.90;;;;;;5049469;28;20201;-77
2020/12/16 12:19:14;;;;;;;9.00;6.57;;;11.70;99.90;;;;;;5047937;28;20196;-78
2020/12/16 12:21:40;;;;;;;8.70;5.97;;;11.30;99.90;;;;;;5047027;28;20205;-78
2020/12/16 12:24:07;;;;;;;8.33;5.70;;;11.20;99.90;;;;;;5066545;28;20656;-76
2020/12/16 12:26:34;;;;;;;7.57;5.57;;;10.90;99.90;;;;;;5051187;28;20208;-77
2020/12/16 12:29:00;;;;;;;7.83;5.73;;;10.90;99.90;;;;;;5064732;28;20219;-75
2020/12/16 12:31:27;;;;;;;9.27;6.10;;;10.90;99.90;;;;;;5066748;28;20879;-76
2020/12/16 12:33:54;;;;;;;9.10;5.10;;;10.90;99.90;;;;;;5070282;28;20691;-76
2020/12/16 12:36:20;;;;;;;9.57;5.63;;;10.80;99.90;;;;;;5049772;28;20269;-75
2020/12/16 12:38:51;;;;;;;7.87;5.67;;;10.70;99.90;;;;;;5070198;28;20192;-75
2020/12/16 12:41:17;;;;;;;7.93;5.87;;;10.70;99.90;;;;;;5047931;28;20289;-76
2020/12/16 12:43:44;;;;;;;10.07;6.23;;;10.70;99.90;;;;;;5061563;28;20272;-76
2020/12/16 12:46:10;;;;;;;7.63;5.83;;;10.60;99.90;;;;;;5064786;28;20682;-76
2020/12/16 12:48:36;;;;;;;7.40;5.83;;;10.70;99.90;;;;;;5066407;28;20276;-76
2020/12/16 12:51:04;;;;;;;7.20;5.57;;;10.90;99.90;;;;;;5062188;28;20208;-77
2020/12/16 12:53:53;;;;;;;7.57;5.40;;;11.00;99.90;;;;;;5053113;28;20570;-75
2020/12/16 12:56:21;;;;;;;7.73;6.00;;;11.10;99.90;;;;;;5072781;28;20208;-75
2020/12/16 12:58:47;;;;;;;8.83;6.37;;;11.00;99.90;;;;;;5068876;28;20219;-75